createdAt,value
2019-02-06T00:01:12.709Z,18.00
2019-02-06T00:02:16.603Z,20.00
2019-02-06T00:03:22.120Z,20.00
2019-02-06T00:04:27.967Z,18.00
2019-02-06T00:05:30.872Z,16.00
2019-02-06T00:06:34.034Z,17.50
2019-02-06T00:07:36.896Z,16.00
2019-02-06T00:08:39.929Z,18.50
2019-02-06T00:09:43.106Z,16.00
2019-02-06T00:10:46.418Z,16.50
2019-02-06T00:11:49.374Z,20.00
2019-02-06T00:12:55.419Z,18.00
2019-02-06T00:13:58.217Z,22.50
2019-02-06T00:15:01.158Z,15.50
2019-02-06T00:16:03.969Z,17.50
2019-02-06T00:17:06.936Z,18.00
2019-02-06T00:18:09.872Z,15.50
2019-02-06T00:19:13.039Z,16.00
2019-02-06T00:20:16.485Z,18.00
2019-02-06T00:21:20.599Z,14.00
2019-02-06T00:22:24.776Z,16.00
2019-02-06T00:23:27.613Z,15.00
2019-02-06T00:24:30.395Z,17.00
2019-02-06T00:25:33.557Z,16.00
2019-02-06T00:26:36.352Z,15.00
2019-02-06T00:27:39.187Z,17.00
2019-02-06T00:28:41.949Z,17.50
2019-02-06T00:29:44.981Z,16.00
2019-02-06T00:30:47.910Z,17.00
2019-02-06T00:31:51.036Z,16.00
2019-02-06T00:32:53.855Z,18.00
2019-02-06T00:33:57.010Z,17.50
2019-02-06T00:34:59.893Z,17.50
2019-02-06T00:36:02.718Z,21.50
2019-02-06T00:37:05.499Z,20.00
2019-02-06T00:38:08.617Z,18.00
2019-02-06T00:39:11.428Z,18.50
2019-02-06T00:40:14.301Z,18.50
2019-02-06T00:41:17.244Z,18.00
2019-02-06T00:42:20.071Z,20.50
2019-02-06T00:43:22.854Z,17.00
2019-02-06T00:44:25.937Z,20.00
2019-02-06T00:45:29.112Z,19.00
2019-02-06T00:46:32.063Z,21.00
2019-02-06T00:47:34.879Z,19.00
2019-02-06T00:48:37.683Z,18.50
2019-02-06T00:49:42.132Z,15.50
2019-02-06T00:50:45.329Z,18.50
2019-02-06T00:51:48.154Z,18.50
2019-02-06T00:52:51.396Z,20.00
2019-02-06T00:53:54.205Z,17.00
2019-02-06T00:54:57.064Z,19.00
2019-02-06T00:55:59.958Z,17.00
2019-02-06T00:57:03.103Z,20.00
2019-02-06T00:58:06.224Z,18.00
2019-02-06T00:59:09.130Z,17.00
2019-02-06T01:00:13.475Z,17.00
2019-02-06T01:01:16.426Z,17.00
2019-02-06T01:02:19.740Z,17.50
2019-02-06T01:03:22.980Z,16.50
2019-02-06T01:04:25.808Z,20.00
2019-02-06T01:05:37.909Z,16.50
2019-02-06T01:06:33.472Z,19.00
2019-02-06T01:07:39.297Z,16.50
2019-02-06T01:08:42.241Z,16.50
2019-02-06T01:09:45.340Z,16.00
2019-02-06T01:10:48.364Z,15.50
2019-02-06T01:11:51.325Z,19.00
2019-02-06T01:12:54.160Z,16.50
2019-02-06T01:13:57.003Z,18.00
2019-02-06T01:15:00.216Z,18.00
2019-02-06T01:16:03.346Z,18.00
2019-02-06T01:17:06.238Z,21.00
2019-02-06T01:18:11.981Z,19.50
2019-02-06T01:19:17.674Z,21.00
2019-02-06T01:20:20.503Z,23.00
2019-02-06T01:21:23.356Z,15.00
2019-02-06T01:22:26.455Z,15.50
2019-02-06T01:23:29.648Z,19.00
2019-02-06T01:24:32.531Z,18.50
2019-02-06T01:25:35.347Z,18.00
2019-02-06T01:26:40.896Z,16.50
2019-02-06T01:27:43.706Z,21.50
2019-02-06T01:28:46.887Z,17.50
2019-02-06T01:29:49.780Z,15.50
2019-02-06T01:30:59.503Z,14.00
2019-02-06T01:32:02.338Z,16.50
2019-02-06T01:33:05.190Z,18.00
2019-02-06T01:34:08.043Z,19.50
2019-02-06T01:35:11.138Z,18.50
2019-02-06T01:36:17.025Z,18.00
2019-02-06T01:37:22.631Z,18.50
2019-02-06T01:38:26.256Z,17.00
2019-02-06T01:39:29.274Z,19.00
2019-02-06T01:40:32.093Z,19.00
2019-02-06T01:41:35.246Z,21.50
2019-02-06T01:42:38.037Z,19.50
2019-02-06T01:43:40.844Z,23.00
2019-02-06T01:44:43.789Z,20.50
2019-02-06T01:45:46.689Z,16.00
2019-02-06T01:46:49.555Z,21.00
2019-02-06T01:47:54.105Z,15.00
2019-02-06T01:48:56.913Z,17.50
2019-02-06T01:50:02.702Z,19.00
2019-02-06T01:51:05.890Z,18.50
2019-02-06T01:52:08.718Z,20.50
2019-02-06T01:53:11.983Z,20.50
2019-02-06T01:54:15.079Z,17.50
2019-02-06T01:55:17.907Z,19.50
2019-02-06T01:56:20.760Z,16.00
2019-02-06T01:57:24.669Z,14.00
2019-02-06T01:58:27.545Z,15.00
2019-02-06T01:59:30.401Z,20.00
2019-02-06T02:00:33.480Z,18.00
2019-02-06T02:01:36.357Z,19.50
2019-02-06T02:02:39.471Z,15.50
2019-02-06T02:03:42.369Z,17.00
2019-02-06T02:04:45.646Z,14.50
2019-02-06T02:05:48.916Z,12.50
2019-02-06T02:06:52.132Z,15.50
2019-02-06T02:07:54.946Z,12.50
2019-02-06T02:09:00.710Z,14.00
2019-02-06T02:10:03.934Z,16.00
2019-02-06T02:11:06.785Z,14.50
2019-02-06T02:12:09.633Z,16.00
2019-02-06T02:13:12.751Z,16.50
2019-02-06T02:14:15.649Z,14.00
2019-02-06T02:15:20.753Z,15.50
2019-02-06T02:16:25.676Z,14.00
2019-02-06T02:17:28.513Z,19.00
2019-02-06T02:18:34.379Z,17.50
2019-02-06T02:19:37.681Z,19.00
2019-02-06T02:20:43.807Z,22.00
2019-02-06T02:21:46.715Z,17.50
2019-02-06T02:22:49.523Z,18.50
2019-02-06T02:23:52.389Z,18.50
2019-02-06T02:24:55.209Z,17.50
2019-02-06T02:25:58.424Z,16.00
2019-02-06T02:27:01.283Z,16.00
2019-02-06T02:28:06.908Z,16.00
2019-02-06T02:29:13.703Z,12.00
2019-02-06T02:30:16.982Z,16.50
2019-02-06T02:31:20.600Z,14.00
2019-02-06T02:32:23.723Z,11.50
2019-02-06T02:33:26.574Z,14.00
2019-02-06T02:34:29.404Z,14.00
2019-02-06T02:35:32.248Z,14.00
2019-02-06T02:36:35.190Z,11.50
2019-02-06T02:37:38.182Z,16.00
2019-02-06T02:38:41.386Z,15.50
2019-02-06T02:39:44.305Z,12.00
2019-02-06T02:40:47.609Z,12.00
2019-02-06T02:41:50.471Z,15.00
2019-02-06T02:42:53.689Z,12.00
2019-02-06T02:43:59.274Z,14.00
2019-02-06T02:45:02.205Z,15.00
2019-02-06T02:46:05.063Z,12.50
2019-02-06T02:47:07.897Z,15.00
2019-02-06T02:48:10.825Z,14.00
2019-02-06T02:49:13.640Z,12.00
2019-02-06T02:50:19.541Z,13.50
2019-02-06T02:51:22.665Z,14.00
2019-02-06T02:52:25.524Z,16.50
2019-02-06T02:53:28.432Z,17.50
2019-02-06T02:54:31.254Z,17.50
2019-02-06T02:55:34.403Z,18.00
2019-02-06T02:56:37.281Z,17.00
2019-02-06T02:57:40.358Z,16.00
2019-02-06T02:58:43.281Z,16.00
2019-02-06T02:59:46.075Z,14.00
2019-02-06T03:01:08.776Z,17.50
2019-02-06T03:02:33.801Z,13.50
2019-02-06T03:04:01.828Z,12.50
2019-02-06T03:05:11.643Z,12.00
2019-02-06T03:06:27.708Z,11.50
2019-02-06T03:07:22.921Z,12.00
2019-02-06T03:08:25.738Z,13.00
2019-02-06T03:09:28.572Z,13.00
2019-02-06T03:10:32.014Z,14.00
2019-02-06T03:11:35.211Z,17.50
2019-02-06T03:12:41.942Z,16.50
2019-02-06T03:13:44.854Z,20.00
2019-02-06T03:14:47.706Z,22.50
2019-02-06T03:15:50.565Z,18.50
2019-02-06T03:16:53.683Z,20.00
2019-02-06T03:17:56.550Z,20.00
2019-02-06T03:18:59.441Z,15.50
2019-02-06T03:20:02.308Z,13.50
2019-02-06T03:21:05.461Z,15.50
2019-02-06T03:22:08.254Z,14.00
2019-02-06T03:23:15.413Z,16.50
2019-02-06T03:24:21.070Z,17.50
2019-02-06T03:25:26.998Z,16.00
2019-02-06T03:26:29.822Z,15.50
2019-02-06T03:27:32.752Z,20.00
2019-02-06T03:28:35.645Z,13.00
2019-02-06T03:29:41.658Z,18.00
2019-02-06T03:30:44.497Z,13.50
2019-02-06T03:31:47.854Z,16.00
2019-02-06T03:32:50.851Z,14.50
2019-02-06T03:33:54.009Z,17.00
2019-02-06T03:34:56.893Z,16.00
2019-02-06T03:36:00.072Z,17.00
2019-02-06T03:37:04.061Z,18.00
2019-02-06T03:38:07.618Z,15.00
2019-02-06T03:39:10.545Z,17.00
2019-02-06T03:40:13.406Z,20.00
2019-02-06T03:41:16.354Z,17.00
2019-02-06T03:42:20.771Z,20.00
2019-02-06T03:43:24.910Z,15.50
2019-02-06T03:44:27.748Z,18.00
2019-02-06T03:45:30.613Z,17.50
2019-02-06T03:46:33.514Z,20.00
2019-02-06T03:47:36.362Z,14.00
2019-02-06T03:48:39.499Z,15.50
2019-02-06T03:49:42.833Z,16.00
2019-02-06T03:50:46.083Z,18.50
2019-02-06T03:51:48.972Z,16.00
2019-02-06T03:52:51.800Z,14.50
2019-02-06T03:53:54.715Z,12.00
2019-02-06T03:54:58.967Z,16.00
2019-02-06T03:56:01.832Z,10.00
2019-02-06T03:57:04.732Z,10.00
2019-02-06T03:58:10.523Z,12.00
2019-02-06T03:59:13.379Z,12.00
2019-02-06T04:00:16.202Z,14.00
2019-02-06T04:01:19.462Z,14.50
2019-02-06T04:02:22.315Z,11.00
2019-02-06T04:03:30.062Z,13.50
2019-02-06T04:04:32.657Z,10.50
2019-02-06T04:05:35.493Z,15.50
2019-02-06T04:06:38.349Z,14.00
2019-02-06T04:07:41.588Z,15.00
2019-02-06T04:08:44.421Z,14.00
2019-02-06T04:09:47.692Z,11.00
2019-02-06T04:10:52.078Z,14.00
2019-02-06T04:11:54.936Z,13.50
2019-02-06T04:12:57.861Z,12.50
2019-02-06T04:14:02.157Z,16.50
2019-02-06T04:15:04.972Z,15.50
2019-02-06T04:16:11.556Z,18.50
2019-02-06T04:17:14.817Z,15.50
2019-02-06T04:18:19.949Z,15.00
2019-02-06T04:19:24.510Z,15.50
2019-02-06T04:20:30.533Z,14.00
2019-02-06T04:21:33.356Z,12.50
2019-02-06T04:22:36.188Z,14.00
2019-02-06T04:23:39.535Z,10.00
2019-02-06T04:24:42.435Z,12.50
2019-02-06T04:25:45.332Z,13.00
2019-02-06T04:26:48.458Z,14.00
2019-02-06T04:27:51.292Z,13.50
2019-02-06T04:28:54.176Z,12.50
2019-02-06T04:29:57.209Z,14.00
2019-02-06T04:31:00.460Z,15.50
2019-02-06T04:32:03.274Z,15.00
2019-02-06T04:33:06.539Z,13.50
2019-02-06T04:34:11.116Z,14.00
2019-02-06T04:35:14.504Z,14.50
2019-02-06T04:36:17.807Z,12.00
2019-02-06T04:37:21.776Z,10.00
2019-02-06T04:38:24.684Z,12.00
2019-02-06T04:39:27.910Z,14.00
2019-02-06T04:40:30.752Z,13.00
2019-02-06T04:41:33.551Z,16.00
2019-02-06T04:42:36.471Z,13.00
2019-02-06T04:43:40.186Z,14.00
2019-02-06T04:44:43.109Z,14.00
2019-02-06T04:45:46.288Z,13.50
2019-02-06T04:46:52.352Z,15.50
2019-02-06T04:47:55.195Z,12.00
2019-02-06T04:48:58.060Z,12.50
2019-02-06T04:50:01.379Z,17.00
2019-02-06T04:51:04.213Z,15.50
2019-02-06T04:52:07.348Z,18.50
2019-02-06T04:53:10.155Z,14.00
2019-02-06T04:54:12.984Z,16.00
2019-02-06T04:55:16.498Z,14.50
2019-02-06T04:56:23.653Z,16.00
2019-02-06T04:57:26.495Z,15.00
2019-02-06T04:58:29.618Z,18.50
2019-02-06T04:59:32.433Z,14.00
2019-02-06T05:00:35.317Z,16.00
2019-02-06T05:01:38.151Z,14.00
2019-02-06T05:02:41.007Z,13.50
2019-02-06T05:03:43.893Z,15.00
2019-02-06T05:04:47.049Z,19.00
2019-02-06T05:05:49.923Z,16.00
2019-02-06T05:06:52.762Z,17.00
2019-02-06T05:07:56.390Z,15.00
2019-02-06T05:08:59.558Z,19.00
2019-02-06T05:10:02.816Z,16.00
2019-02-06T05:11:06.016Z,12.00
2019-02-06T05:12:09.666Z,14.00
2019-02-06T05:13:12.618Z,16.00
2019-02-06T05:14:15.521Z,10.50
2019-02-06T05:15:18.400Z,14.00
2019-02-06T05:16:21.351Z,15.50
2019-02-06T05:17:24.628Z,13.00
2019-02-06T05:18:27.408Z,12.00
2019-02-06T05:19:30.456Z,15.00
2019-02-06T05:20:36.327Z,11.00
2019-02-06T05:21:39.689Z,14.00
2019-02-06T05:22:42.902Z,14.50
2019-02-06T05:23:46.002Z,13.50
2019-02-06T05:24:48.836Z,12.00
2019-02-06T05:25:52.329Z,11.50
2019-02-06T05:26:55.333Z,11.00
2019-02-06T05:28:02.979Z,12.50
2019-02-06T05:29:06.442Z,13.50
2019-02-06T05:30:09.618Z,13.00
2019-02-06T05:31:12.440Z,12.00
2019-02-06T05:32:15.349Z,14.50
2019-02-06T05:33:21.190Z,13.00
2019-02-06T05:34:24.319Z,10.50
2019-02-06T05:35:27.142Z,12.00
2019-02-06T05:36:30.372Z,10.00
2019-02-06T05:37:33.638Z,12.00
2019-02-06T05:38:36.472Z,10.50
2019-02-06T05:39:39.795Z,12.00
2019-02-06T05:40:42.613Z,10.00
2019-02-06T05:41:45.609Z,16.00
2019-02-06T05:42:48.745Z,13.50
2019-02-06T05:43:51.568Z,14.00
2019-02-06T05:44:54.448Z,15.00
2019-02-06T05:45:59.959Z,14.00
2019-02-06T05:47:03.322Z,12.00
2019-02-06T05:48:06.199Z,12.50
2019-02-06T05:49:09.299Z,13.50
2019-02-06T05:50:12.150Z,15.50
2019-02-06T05:51:15.971Z,15.50
2019-02-06T05:52:19.943Z,14.00
2019-02-06T05:53:23.652Z,14.00
2019-02-06T05:54:26.505Z,12.50
2019-02-06T05:55:29.637Z,15.00
2019-02-06T05:56:32.501Z,16.00
2019-02-06T05:57:36.900Z,17.00
2019-02-06T05:58:40.149Z,14.50
2019-02-06T05:59:43.093Z,15.50
2019-02-06T06:00:47.978Z,14.00
2019-02-06T06:01:51.342Z,16.50
2019-02-06T06:02:54.197Z,17.00
2019-02-06T06:03:57.456Z,11.50
2019-02-06T06:05:03.424Z,14.00
2019-02-06T06:06:06.258Z,13.50
2019-02-06T06:07:09.075Z,15.00
2019-02-06T06:08:12.227Z,15.50
2019-02-06T06:09:15.460Z,20.00
2019-02-06T06:10:18.673Z,16.00
2019-02-06T06:11:21.820Z,18.00
2019-02-06T06:12:24.839Z,16.00
2019-02-06T06:13:27.701Z,18.50
2019-02-06T06:14:35.988Z,18.00
2019-02-06T06:15:38.571Z,18.00
2019-02-06T06:16:41.422Z,18.50
2019-02-06T06:17:44.280Z,16.00
2019-02-06T06:18:47.136Z,13.00
2019-02-06T06:19:49.978Z,14.50
2019-02-06T06:20:53.662Z,18.50
2019-02-06T06:21:58.390Z,16.50
2019-02-06T06:23:01.249Z,14.00
2019-02-06T06:24:08.940Z,16.00
2019-02-06T06:25:10.393Z,18.50
2019-02-06T06:26:13.332Z,18.00
2019-02-06T06:27:17.036Z,18.00
2019-02-06T06:28:19.896Z,16.50
2019-02-06T06:29:22.967Z,18.00
2019-02-06T06:43:50.495Z,24.00
2019-02-06T06:44:53.560Z,19.50
2019-02-06T06:45:58.978Z,17.50
2019-02-06T06:47:08.502Z,19.25
2019-02-06T06:48:11.866Z,20.00
2019-02-06T06:49:17.774Z,21.00
2019-02-06T06:50:20.666Z,18.00
2019-02-06T06:51:26.645Z,22.00
2019-02-06T06:52:29.497Z,22.00
2019-02-06T06:53:32.413Z,21.00
2019-02-06T06:54:35.257Z,18.00
2019-02-06T06:55:38.962Z,18.00
2019-02-06T06:56:44.132Z,18.50
2019-02-06T06:57:48.486Z,15.00
2019-02-06T06:58:54.061Z,19.00
2019-02-06T06:59:56.684Z,20.50
2019-02-06T07:00:59.553Z,17.00
2019-02-06T07:02:03.090Z,18.00
2019-02-06T07:03:07.828Z,14.00
2019-02-06T07:04:10.802Z,15.50
2019-02-06T07:05:15.843Z,20.00
2019-02-06T07:06:19.325Z,19.50
2019-02-06T07:07:22.540Z,20.50
2019-02-06T07:08:25.836Z,20.00
2019-02-06T07:09:28.790Z,21.00
2019-02-06T07:10:32.739Z,20.50
2019-02-06T07:11:35.622Z,15.50
2019-02-06T07:12:42.052Z,16.00
2019-02-06T07:13:44.907Z,16.00
2019-02-06T07:14:48.471Z,16.00
2019-02-06T07:15:52.281Z,14.50
2019-02-06T07:16:58.229Z,15.50
2019-02-06T07:18:10.094Z,19.50
2019-02-06T07:19:22.421Z,18.00
2019-02-06T07:20:28.201Z,14.00
2019-02-06T07:21:31.104Z,12.50
2019-02-06T07:22:33.951Z,10.00
2019-02-06T07:23:37.326Z,14.00
2019-02-06T07:24:40.293Z,16.50
2019-02-06T07:25:43.206Z,14.00
2019-02-06T07:26:47.157Z,12.00
2019-02-06T07:27:50.408Z,10.50
2019-02-06T07:28:53.281Z,12.00
2019-02-06T07:29:56.223Z,12.00
2019-02-06T07:30:59.130Z,15.50
2019-02-06T07:32:01.985Z,13.50
2019-02-06T07:33:07.637Z,14.50
2019-02-06T07:34:10.497Z,14.00
2019-02-06T07:35:13.433Z,16.00
2019-02-06T07:36:19.269Z,12.00
2019-02-06T07:37:24.883Z,13.00
2019-02-06T07:38:27.759Z,14.50
2019-02-06T07:39:30.977Z,12.00
2019-02-06T07:40:33.922Z,11.50
2019-02-06T07:41:36.798Z,12.50
2019-02-06T07:42:42.824Z,14.00
2019-02-06T07:43:45.702Z,17.50
2019-02-06T07:44:48.582Z,19.00
2019-02-06T07:45:51.840Z,17.00
2019-02-06T07:46:55.131Z,16.00
2019-02-06T07:47:58.093Z,18.00
2019-02-06T07:49:01.016Z,18.00
2019-02-06T07:50:04.295Z,17.00
2019-02-06T07:51:07.278Z,19.00
2019-02-06T07:52:10.536Z,17.00
2019-02-06T07:53:13.506Z,17.00
2019-02-06T07:54:16.797Z,19.50
2019-02-06T07:55:19.649Z,21.50
2019-02-06T07:56:22.508Z,18.00
2019-02-06T07:57:25.422Z,18.00
2019-02-06T07:58:31.724Z,18.00
2019-02-06T07:59:34.931Z,18.50
2019-02-06T08:00:38.791Z,18.50
2019-02-06T08:01:41.661Z,17.50
2019-02-06T08:02:46.326Z,18.00
2019-02-06T08:03:49.718Z,22.50
2019-02-06T08:04:58.070Z,20.50
2019-02-06T08:06:07.116Z,21.00
2019-02-06T08:07:09.949Z,19.50
2019-02-06T08:08:14.826Z,16.50
2019-02-06T08:09:17.479Z,19.00
2019-02-06T08:10:20.473Z,18.00
2019-02-06T08:11:23.812Z,17.00
2019-02-06T08:12:26.694Z,20.00
2019-02-06T08:13:29.544Z,21.00
2019-02-06T08:14:32.910Z,16.50
2019-02-06T08:15:35.896Z,19.00
2019-02-06T08:16:38.801Z,16.00
2019-02-06T08:17:41.710Z,16.00
2019-02-06T08:18:44.587Z,16.50
2019-02-06T08:19:47.459Z,18.00
2019-02-06T08:20:50.412Z,18.00
2019-02-06T08:21:53.319Z,19.50
2019-02-06T08:22:56.308Z,21.00
2019-02-06T08:24:06.567Z,22.50
2019-02-06T08:25:16.766Z,18.00
2019-02-06T08:26:22.035Z,18.00
2019-02-06T08:27:26.853Z,14.00
2019-02-06T08:28:32.412Z,16.50
2019-02-06T08:29:35.241Z,16.00
2019-02-06T08:30:39.136Z,20.00
2019-02-06T08:31:42.501Z,20.50
2019-02-06T08:32:48.501Z,22.00
2019-02-06T08:33:51.414Z,23.50
2019-02-06T08:34:54.327Z,24.25
2019-02-06T08:35:57.380Z,24.00
2019-02-06T08:37:00.798Z,21.50
2019-02-06T08:38:03.680Z,20.00
2019-02-06T08:39:09.796Z,21.25
2019-02-06T08:40:12.671Z,23.75
2019-02-06T08:41:17.085Z,19.25
2019-02-06T08:42:19.993Z,16.25
2019-02-06T08:43:24.322Z,16.75
2019-02-06T08:44:27.559Z,16.25
2019-02-06T08:45:30.491Z,17.75
2019-02-06T08:46:33.478Z,14.25
2019-02-06T08:47:36.354Z,13.75
2019-02-06T08:48:39.195Z,19.25
2019-02-06T08:49:42.823Z,21.75
2019-02-06T08:50:45.776Z,18.25
2019-02-06T08:51:50.481Z,19.00
2019-02-06T08:52:53.378Z,20.00
2019-02-06T08:53:56.233Z,17.50
2019-02-06T08:55:03.096Z,16.50
2019-02-06T08:56:08.048Z,19.00
2019-02-06T08:57:15.064Z,17.00
2019-02-06T08:58:17.685Z,18.00
2019-02-06T08:59:23.434Z,18.00
2019-02-06T09:00:36.416Z,20.50
2019-02-06T09:01:39.809Z,23.00
2019-02-06T09:02:42.646Z,19.50
2019-02-06T09:03:45.484Z,24.00
2019-02-06T09:04:55.613Z,22.50
2019-02-06T09:05:53.005Z,28.25
2019-02-06T09:06:56.027Z,24.75
2019-02-06T09:07:59.197Z,25.75
2019-02-06T09:09:05.686Z,28.25
2019-02-06T09:10:15.240Z,23.75
2019-02-06T09:11:18.173Z,23.75
2019-02-06T09:12:23.342Z,20.75
2019-02-06T09:13:26.422Z,15.50
2019-02-06T09:14:29.703Z,14.50
2019-02-06T09:15:33.959Z,20.75
2019-02-06T09:16:36.887Z,16.25
2019-02-06T09:17:41.651Z,18.75
2019-02-06T09:18:44.512Z,15.75
2019-02-06T09:19:50.188Z,18.00
2019-02-06T09:20:58.337Z,18.50
2019-02-06T09:22:01.201Z,20.00
2019-02-06T09:23:06.570Z,17.50
2019-02-06T09:24:09.403Z,18.50
2019-02-06T09:25:14.290Z,21.25
2019-02-06T09:26:19.400Z,22.25
2019-02-06T09:27:22.653Z,24.00
2019-02-06T09:28:25.545Z,24.75
2019-02-06T09:29:28.430Z,21.50
2019-02-06T09:30:31.599Z,22.75
2019-02-06T09:31:34.845Z,24.00
2019-02-06T09:32:37.850Z,23.00
2019-02-06T09:33:41.128Z,23.00
2019-02-06T09:34:47.249Z,17.50
2019-02-06T09:35:50.121Z,17.25
2019-02-06T09:36:53.230Z,20.00
2019-02-06T09:37:57.378Z,19.50
2019-02-06T09:39:10.870Z,14.50
2019-02-06T09:40:06.823Z,18.50
2019-02-06T09:41:16.956Z,20.00
2019-02-06T09:42:19.843Z,20.50
2019-02-06T09:43:22.785Z,19.50
2019-02-06T09:44:25.732Z,19.50
2019-02-06T09:45:29.336Z,17.75
2019-02-06T09:46:34.272Z,19.00
2019-02-06T09:47:39.568Z,22.00
2019-02-06T09:48:41.635Z,22.50
2019-02-06T09:49:44.516Z,21.50
2019-02-06T09:50:47.483Z,16.25
2019-02-06T09:51:50.752Z,18.50
2019-02-06T09:52:55.183Z,23.75
2019-02-06T09:53:58.401Z,16.00
2019-02-06T09:55:03.384Z,21.00
2019-02-06T09:56:06.877Z,18.00
2019-02-06T09:57:09.911Z,18.50
2019-02-06T09:58:17.595Z,17.00
2019-02-06T09:59:21.564Z,14.25
2019-02-06T10:00:24.656Z,14.75
2019-02-06T10:01:27.611Z,16.75
2019-02-06T10:02:30.565Z,17.75
2019-02-06T10:03:33.564Z,16.75
2019-02-06T10:04:36.958Z,16.00
2019-02-06T10:05:39.926Z,16.50
2019-02-06T10:06:42.772Z,17.50
2019-02-06T10:07:46.280Z,15.00
2019-02-06T10:08:49.336Z,13.50
2019-02-06T10:09:52.175Z,13.50
2019-02-06T10:10:57.214Z,15.00
2019-02-06T10:12:01.341Z,15.00
2019-02-06T10:13:04.356Z,13.50
2019-02-06T10:14:07.303Z,16.00
2019-02-06T10:15:12.184Z,17.00
2019-02-06T10:16:25.921Z,17.00
2019-02-06T10:17:28.918Z,15.50
2019-02-06T10:18:34.510Z,16.50
2019-02-06T10:19:36.997Z,15.50
2019-02-06T10:20:39.865Z,13.00
2019-02-06T10:21:43.355Z,12.00
2019-02-06T10:22:46.574Z,16.00
2019-02-06T10:23:49.482Z,15.25
2019-02-06T10:24:55.053Z,15.00
2019-02-06T10:25:57.953Z,15.75
2019-02-06T10:27:00.787Z,15.50
2019-02-06T10:28:04.053Z,13.25
2019-02-06T10:29:07.501Z,13.00
2019-02-06T10:30:10.375Z,12.75
2019-02-06T10:31:13.229Z,13.75
2019-02-06T10:32:16.083Z,13.75
2019-02-06T10:33:20.817Z,14.00
2019-02-06T10:34:23.782Z,12.75
2019-02-06T10:35:29.172Z,14.50
2019-02-06T10:36:33.842Z,14.00
2019-02-06T10:37:36.694Z,14.00
2019-02-06T10:38:43.066Z,17.50
2019-02-06T10:39:48.181Z,15.50
2019-02-06T10:40:55.874Z,13.50
2019-02-06T10:41:59.093Z,12.50
2019-02-06T10:43:05.668Z,14.00
2019-02-06T10:44:08.591Z,13.50
2019-02-06T10:45:11.445Z,13.50
2019-02-06T10:46:14.325Z,14.00
2019-02-06T10:48:38.845Z,14.00
2019-02-06T10:49:41.760Z,16.50
2019-02-06T10:50:44.714Z,16.00
2019-02-06T10:51:47.832Z,16.00
2019-02-06T10:52:51.121Z,13.50
2019-02-06T10:53:54.397Z,16.25
2019-02-06T10:54:59.426Z,14.00
2019-02-06T10:56:06.924Z,17.75
2019-02-06T10:57:12.445Z,14.00
2019-02-06T10:58:15.303Z,13.00
2019-02-06T10:59:19.183Z,12.50
2019-02-06T11:00:22.966Z,15.50
2019-02-06T11:01:26.336Z,12.50
2019-02-06T11:02:29.314Z,14.50
2019-02-06T11:03:32.211Z,12.00
2019-02-06T11:04:35.047Z,12.00
2019-02-06T11:05:38.072Z,14.00
2019-02-06T11:06:41.401Z,12.50
2019-02-06T11:07:46.253Z,14.00
2019-02-06T11:08:49.337Z,14.25
2019-02-06T11:09:52.799Z,15.50
2019-02-06T11:10:55.714Z,16.50
2019-02-06T11:12:00.880Z,15.75
2019-02-06T11:13:08.303Z,13.50
2019-02-06T11:14:11.590Z,14.25
2019-02-06T11:15:14.829Z,13.75
2019-02-06T11:16:18.259Z,15.00
2019-02-06T11:17:21.342Z,15.00
2019-02-06T11:18:24.284Z,15.00
2019-02-06T11:19:27.484Z,13.50
2019-02-06T11:20:30.418Z,15.00
2019-02-06T11:21:33.296Z,16.00
2019-02-06T11:22:38.405Z,15.25
2019-02-06T11:23:41.254Z,14.50
2019-02-06T11:24:44.110Z,19.00
2019-02-06T11:25:47.319Z,15.75
2019-02-06T11:26:51.601Z,14.00
2019-02-06T11:27:54.726Z,15.50
2019-02-06T11:28:57.654Z,15.25
2019-02-06T11:30:00.656Z,15.75
2019-02-06T11:42:53.687Z,17.25
2019-02-06T11:43:56.661Z,17.75
2019-02-06T11:44:59.630Z,14.25
2019-02-06T11:46:02.604Z,16.50
2019-02-06T11:47:11.627Z,16.25
2019-02-06T11:48:15.187Z,14.00
2019-02-06T11:49:20.212Z,18.50
2019-02-06T11:50:26.907Z,16.00
2019-02-06T11:51:29.850Z,15.25
2019-02-06T11:52:32.811Z,13.75
2019-02-06T11:53:35.658Z,15.75
2019-02-06T11:54:44.158Z,14.75
2019-02-06T11:55:48.409Z,12.00
2019-02-06T11:56:59.734Z,13.00
2019-02-06T11:58:03.274Z,12.75
2019-02-06T11:59:06.189Z,10.75
2019-02-06T12:00:13.594Z,15.00
2019-02-06T12:01:38.968Z,12.50
2019-02-06T12:02:41.991Z,12.75
2019-02-06T12:03:45.379Z,10.75
2019-02-06T12:04:48.362Z,10.50
2019-02-06T12:05:51.675Z,11.75
2019-02-06T12:06:59.739Z,9.50
2019-02-06T12:08:03.972Z,11.25
2019-02-06T12:09:06.849Z,11.00
2019-02-06T12:10:10.537Z,11.00
2019-02-06T12:11:15.238Z,10.00
2019-02-06T12:12:19.823Z,10.00
2019-02-06T12:13:24.386Z,8.50
2019-02-06T12:14:27.450Z,9.50
2019-02-06T12:15:30.384Z,9.25
2019-02-06T12:16:36.901Z,10.00
2019-02-06T12:17:39.979Z,10.00
2019-02-06T12:18:43.382Z,9.50
2019-02-06T12:19:47.840Z,6.00
2019-02-06T12:20:52.878Z,10.50
2019-02-06T12:21:56.259Z,10.50
2019-02-06T12:23:02.392Z,8.00
2019-02-06T12:24:05.632Z,11.00
2019-02-06T12:25:12.505Z,9.50
2019-02-06T12:26:20.125Z,9.50
2019-02-06T12:27:24.272Z,9.00
2019-02-06T12:28:27.209Z,8.00
2019-02-06T12:29:33.861Z,8.00
2019-02-06T12:30:36.695Z,9.50
2019-02-06T12:31:39.978Z,8.00
2019-02-06T12:32:52.039Z,10.50
2019-02-06T12:33:47.359Z,8.00
2019-02-06T12:34:51.772Z,8.50
2019-02-06T12:35:55.007Z,8.00
2019-02-06T12:36:57.969Z,9.75
2019-02-06T12:38:01.250Z,8.50
2019-02-06T12:39:06.209Z,10.75
2019-02-06T12:40:20.738Z,10.25
2019-02-06T12:41:16.424Z,11.00
2019-02-06T12:42:19.864Z,9.75
2019-02-06T12:43:22.782Z,8.50
2019-02-06T12:44:26.088Z,9.25
2019-02-06T12:45:30.681Z,7.00
2019-02-06T12:46:33.508Z,8.50
2019-02-06T12:47:37.209Z,9.75
2019-02-06T12:48:40.139Z,9.25
2019-02-06T12:49:43.037Z,9.00
2019-02-06T12:50:46.630Z,9.25
2019-02-06T12:51:52.262Z,8.50
2019-02-06T12:52:57.150Z,9.25
2019-02-06T12:53:58.868Z,10.50
2019-02-06T12:55:01.763Z,10.25
2019-02-06T12:56:07.044Z,8.00
2019-02-06T12:57:10.420Z,10.75
2019-02-06T12:58:13.291Z,8.00
2019-02-06T12:59:16.274Z,10.00
2019-02-06T13:00:23.963Z,8.25
2019-02-06T13:01:30.264Z,9.50
2019-02-06T13:02:35.879Z,7.50
2019-02-06T13:03:40.415Z,10.00
2019-02-06T13:04:43.251Z,9.75
2019-02-06T13:05:46.211Z,8.75
2019-02-06T13:06:49.177Z,8.00
2019-02-06T13:07:52.108Z,9.00
2019-02-06T13:08:55.021Z,10.25
2019-02-06T13:10:00.359Z,9.00
2019-02-06T13:11:03.443Z,10.00
2019-02-06T13:12:06.270Z,9.00
2019-02-06T13:13:09.080Z,8.00
2019-02-06T13:14:17.014Z,7.50
2019-02-06T13:15:22.133Z,10.00
2019-02-06T13:16:25.414Z,8.00
2019-02-06T13:17:31.295Z,9.00
2019-02-06T13:18:34.536Z,11.00
2019-02-06T13:19:42.991Z,10.00
2019-02-06T13:20:45.882Z,8.00
2019-02-06T13:21:49.135Z,8.00
2019-02-06T13:22:52.060Z,10.00
2019-02-06T13:23:57.875Z,8.00
2019-02-06T13:25:01.084Z,8.00
2019-02-06T13:26:04.426Z,8.50
2019-02-06T13:27:10.051Z,7.00
2019-02-06T13:28:13.323Z,10.00
2019-02-06T13:29:16.322Z,9.00
2019-02-06T13:30:19.311Z,8.00
2019-02-06T13:31:22.443Z,8.00
2019-02-06T13:32:37.311Z,8.00
2019-02-06T13:33:40.930Z,8.00
2019-02-06T13:34:45.686Z,9.00
2019-02-06T13:35:50.373Z,8.00
2019-02-06T13:37:02.463Z,9.00
2019-02-06T13:38:05.368Z,7.25
2019-02-06T13:39:08.318Z,7.25
2019-02-06T13:40:11.532Z,10.00
2019-02-06T13:41:14.396Z,7.00
2019-02-06T13:42:17.475Z,8.50
2019-02-06T13:43:20.615Z,8.00
2019-02-06T13:44:25.947Z,8.00
2019-02-06T13:45:28.972Z,8.00
2019-02-06T13:46:33.354Z,7.75
2019-02-06T13:47:36.465Z,7.25
2019-02-06T13:48:42.717Z,8.00
2019-02-06T13:49:46.964Z,6.75
2019-02-06T13:50:57.609Z,7.75
2019-02-06T13:52:00.446Z,7.25
2019-02-06T13:53:05.348Z,8.00
2019-02-06T13:54:08.248Z,6.75
2019-02-06T13:55:15.299Z,7.75
2019-02-06T13:56:18.415Z,6.25
2019-02-06T13:57:33.147Z,7.25
2019-02-06T13:58:25.937Z,5.00
2019-02-06T13:59:29.314Z,6.75
2019-02-06T14:00:32.278Z,7.75
2019-02-06T14:01:35.332Z,4.50
2019-02-06T14:02:41.118Z,6.75
2019-02-06T14:03:44.522Z,6.75
2019-02-06T14:04:54.814Z,7.50
2019-02-06T14:05:57.867Z,6.75
2019-02-06T14:07:16.252Z,5.00
2019-02-06T14:08:21.392Z,7.00
2019-02-06T14:09:26.633Z,6.75
2019-02-06T14:10:28.712Z,6.75
2019-02-06T14:11:35.235Z,5.75
2019-02-06T14:12:42.067Z,5.50
2019-02-06T14:13:44.938Z,6.00